LIMW/AOT METAR and TAF weather

Enter ICAO airport designator
Station Type Date Time Source
LIMW METAR 2023/09/21 17:50 UTC NOAA

LIMW 211750Z AUTO VRB02KT 9999 ///////// 19/13 Q1007


Station Type Date Time Source
LIMW Decoded METAR 2023/09/21 17:50 UTC NOAA

Station name not available
Sep 21, 2023 - 01:50 PM EDT / 2023.09.21 1750 UTC
Wind: Variable at 2 MPH (2 KT):0
Visibility: greater than 7 mile(s):0
Temperature: 66 F (19 C)
Dew Point: 55 F (13 C)
Relative Humidity: 68%
Pressure (altimeter): 29.74 in. Hg (1007 hPa)
ob: LIMW 211750Z AUTO VRB02KT 9999 ///////// 19/13 Q1007
cycle: 18

Station Type Date Time Source
LIMW TAF UTC NOAA

Error!

Example: see airport list